createdAt,value
2017-12-15T00:01:31.011Z,94945.80
2017-12-15T00:03:58.604Z,94932.84
2017-12-15T00:06:26.198Z,94922.80
2017-12-15T00:08:53.846Z,94918.22
2017-12-15T00:11:21.476Z,94908.19
2017-12-15T00:13:49.061Z,94898.58
2017-12-15T00:16:16.631Z,94909.42
2017-12-15T00:18:44.224Z,94932.84
2017-12-15T00:21:11.809Z,94941.59
2017-12-15T00:23:39.421Z,94948.28
2017-12-15T00:26:07.017Z,94948.30
2017-12-15T00:28:34.617Z,94950.77
2017-12-15T00:31:02.172Z,94942.86
2017-12-15T00:33:29.764Z,94924.47
2017-12-15T00:35:57.354Z,94917.35
2017-12-15T00:38:25.011Z,94928.63
2017-12-15T00:40:52.603Z,94929.50
2017-12-15T00:43:20.644Z,94930.33
2017-12-15T00:45:48.239Z,94928.24
2017-12-15T00:48:15.825Z,94915.71
2017-12-15T00:50:43.432Z,94919.86
2017-12-15T00:53:11.068Z,94919.45
2017-12-15T00:55:38.694Z,94908.16
2017-12-15T00:58:06.246Z,94905.26
2017-12-15T01:00:33.840Z,94898.97
2017-12-15T01:03:01.428Z,94902.75
2017-12-15T01:05:29.042Z,94902.33
2017-12-15T01:07:56.594Z,94894.80
2017-12-15T01:10:24.201Z,94885.59
2017-12-15T01:12:51.793Z,94902.75
2017-12-15T01:15:19.417Z,94891.03
2017-12-15T01:17:47.026Z,94871.82
2017-12-15T01:20:14.586Z,94860.13
2017-12-15T01:22:42.153Z,94850.50
2017-12-15T01:25:09.726Z,94847.98
2017-12-15T01:27:37.349Z,94849.24
2017-12-15T01:30:04.931Z,94850.50
2017-12-15T01:32:32.807Z,94863.05
2017-12-15T01:35:00.396Z,94863.86
2017-12-15T01:37:28.032Z,94872.23
2017-12-15T01:39:55.681Z,94867.22
2017-12-15T01:42:23.306Z,94861.38
2017-12-15T01:44:53.537Z,94865.11
2017-12-15T01:47:21.123Z,94871.40
2017-12-15T01:49:48.705Z,94883.93
2017-12-15T01:52:16.467Z,94881.00
2017-12-15T01:54:44.242Z,94886.41
2017-12-15T01:57:12.642Z,94879.31
2017-12-15T01:59:40.292Z,94884.33
2017-12-15T02:02:07.915Z,94901.02
2017-12-15T02:04:35.502Z,94901.00
2017-12-15T02:07:03.101Z,94898.92
2017-12-15T02:09:30.686Z,94913.55
2017-12-15T02:11:58.369Z,94917.30
2017-12-15T02:14:26.058Z,94917.30
2017-12-15T02:16:53.686Z,94925.22
2017-12-15T02:19:21.254Z,94934.84
2017-12-15T02:21:48.874Z,94921.47
2017-12-15T02:24:16.457Z,94906.84
2017-12-15T02:26:44.080Z,94908.50
2017-12-15T02:29:11.642Z,94917.26
2017-12-15T02:31:39.276Z,94907.67
2017-12-15T02:34:06.864Z,94922.27
2017-12-15T02:36:34.480Z,94910.16
2017-12-15T02:39:02.090Z,94881.73
2017-12-15T02:41:29.688Z,94879.64
2017-12-15T02:43:57.298Z,94895.91
2017-12-15T02:46:24.947Z,94890.48
2017-12-15T02:48:52.573Z,94881.70
2017-12-15T02:51:20.131Z,94892.13
2017-12-15T02:53:47.817Z,94900.92
2017-12-15T02:56:15.387Z,94887.55
2017-12-15T02:58:43.010Z,94871.70
2017-12-15T03:01:10.592Z,94847.87
2017-12-15T03:03:38.221Z,94872.49
2017-12-15T03:06:05.804Z,94883.36
2017-12-15T03:08:33.410Z,94894.63
2017-12-15T03:11:01.558Z,94913.42
2017-12-15T03:13:29.142Z,94938.05
2017-12-15T03:15:56.735Z,94927.64
2017-12-15T03:20:58.224Z,94923.06
2017-12-15T03:23:25.797Z,94914.74
2017-12-15T03:25:53.657Z,94915.98
2017-12-15T03:28:21.244Z,94922.27
2017-12-15T03:30:48.837Z,94920.61
2017-12-15T03:33:16.444Z,94918.94
2017-12-15T03:35:44.023Z,94934.82
2017-12-15T03:38:11.605Z,94936.09
2017-12-15T03:40:39.164Z,94944.02
2017-12-15T03:43:06.757Z,94943.20
2017-12-15T03:45:34.333Z,94925.23
2017-12-15T03:48:01.934Z,94937.36
2017-12-15T03:50:29.494Z,94949.88
2017-12-15T03:52:57.116Z,94946.56
2017-12-15T03:55:24.720Z,94931.09
2017-12-15T03:57:52.325Z,94946.13
2017-12-15T04:00:19.917Z,94947.80
2017-12-15T04:02:47.494Z,94948.20
2017-12-15T04:05:15.106Z,94949.05
2017-12-15T04:07:42.686Z,94961.16
2017-12-15T04:10:10.284Z,94968.27
2017-12-15T04:12:37.890Z,94965.77
2017-12-15T04:15:05.538Z,94962.87
2017-12-15T04:17:33.180Z,94963.28
2017-12-15T04:20:00.787Z,94959.95
2017-12-15T04:22:28.399Z,94945.77
2017-12-15T04:24:56.018Z,94948.69
2017-12-15T04:27:23.603Z,94949.53
2017-12-15T04:29:51.186Z,94939.51
2017-12-15T04:32:18.778Z,94950.39
2017-12-15T04:34:46.350Z,94960.41
2017-12-15T04:37:14.024Z,94957.91
2017-12-15T04:39:41.606Z,94966.66
2017-12-15T04:42:09.295Z,94974.59
2017-12-15T04:44:36.976Z,94986.29
2017-12-15T04:47:04.644Z,95003.00
2017-12-15T04:49:32.218Z,95005.07
2017-12-15T04:51:59.837Z,95035.62
2017-12-15T04:54:27.392Z,95018.92
2017-12-15T04:56:55.016Z,95001.78
2017-12-15T04:59:22.633Z,95008.48
2017-12-15T05:01:50.214Z,95018.09
2017-12-15T05:04:17.920Z,95038.56
2017-12-15T05:06:45.496Z,95044.42
2017-12-15T05:09:13.087Z,95047.76
2017-12-15T05:11:40.692Z,95064.46
2017-12-15T05:14:08.288Z,95060.70
2017-12-15T05:16:35.868Z,95061.53
2017-12-15T05:19:03.469Z,95074.08
2017-12-15T05:21:31.046Z,95082.02
2017-12-15T05:23:58.650Z,95085.78
2017-12-15T05:26:26.220Z,95084.11
2017-12-15T05:28:53.796Z,95077.84
2017-12-15T05:31:21.412Z,95076.13
2017-12-15T05:33:48.979Z,95086.14
2017-12-15T05:36:16.569Z,95076.53
2017-12-15T05:38:44.171Z,95086.94
2017-12-15T05:41:11.856Z,95095.30
2017-12-15T05:43:39.479Z,95083.16
2017-12-15T05:46:07.080Z,95083.16
2017-12-15T05:48:34.690Z,95086.47
2017-12-15T05:51:02.302Z,95096.09
2017-12-15T05:53:29.958Z,95086.02
2017-12-15T05:55:57.553Z,95083.52
2017-12-15T05:58:25.168Z,95094.80
2017-12-15T06:00:52.769Z,95093.13
2017-12-15T06:03:20.386Z,95105.20
2017-12-15T06:05:47.977Z,95113.96
2017-12-15T06:08:15.581Z,95111.05
2017-12-15T06:10:43.160Z,95108.93
2017-12-15T06:13:10.834Z,95121.89
2017-12-15T06:15:38.397Z,95121.47
2017-12-15T06:18:05.977Z,95127.74
2017-12-15T06:20:33.587Z,95122.72
2017-12-15T06:23:01.162Z,95128.11
2017-12-15T06:25:28.797Z,95126.44
2017-12-15T06:27:56.403Z,95138.54
2017-12-15T06:30:24.024Z,95146.45
2017-12-15T06:32:51.636Z,95141.84
2017-12-15T06:35:19.286Z,95143.48
2017-12-15T06:37:46.871Z,95145.16
2017-12-15T06:40:14.468Z,95148.48
2017-12-15T06:42:42.045Z,95150.96
2017-12-15T06:45:09.591Z,95153.87
2017-12-15T06:47:37.251Z,95168.03
2017-12-15T06:50:04.827Z,95163.85
2017-12-15T06:52:32.413Z,95165.52
2017-12-15T06:55:00.015Z,95168.02
2017-12-15T06:57:27.604Z,95178.45
2017-12-15T06:59:55.216Z,95173.00
2017-12-15T07:02:22.860Z,95180.90
2017-12-15T07:04:50.581Z,95182.97
2017-12-15T07:07:18.456Z,95191.33
2017-12-15T07:09:46.040Z,95196.32
2017-12-15T07:12:13.619Z,95200.49
2017-12-15T07:14:41.249Z,95198.84
2017-12-15T07:17:08.853Z,95196.30
2017-12-15T07:19:36.441Z,95188.80
2017-12-15T07:22:04.044Z,95190.05
2017-12-15T07:24:31.810Z,95199.63
2017-12-15T07:26:59.487Z,95197.52
2017-12-15T07:29:27.103Z,95191.23
2017-12-15T07:31:54.718Z,95193.73
2017-12-15T07:34:22.655Z,95199.58
2017-12-15T07:36:50.267Z,95205.44
2017-12-15T07:39:18.282Z,95205.02
2017-12-15T07:41:45.901Z,95219.64
2017-12-15T07:44:13.497Z,95227.17
2017-12-15T07:46:41.109Z,95238.03
2017-12-15T07:49:08.677Z,95250.54
2017-12-15T07:51:36.315Z,95255.98
2017-12-15T07:54:03.879Z,95261.44
2017-12-15T07:56:31.617Z,95266.89
2017-12-15T07:58:59.189Z,95265.61
2017-12-15T08:01:26.799Z,95268.17
2017-12-15T08:03:54.364Z,95270.27
2017-12-15T08:06:21.951Z,95276.95
2017-12-15T08:08:49.578Z,95276.14
2017-12-15T08:11:17.555Z,95280.30
2017-12-15T08:13:45.208Z,95277.38
2017-12-15T08:16:12.903Z,95274.02
2017-12-15T08:18:40.541Z,95273.58
2017-12-15T08:21:08.116Z,95280.28
2017-12-15T08:23:35.717Z,95282.34
2017-12-15T08:26:03.306Z,95278.11
2017-12-15T08:28:30.923Z,95274.75
2017-12-15T08:30:58.678Z,95278.48
2017-12-15T08:33:26.299Z,95272.64
2017-12-15T08:35:53.921Z,95281.39
2017-12-15T08:38:21.851Z,95281.43
2017-12-15T08:40:49.463Z,95281.51
2017-12-15T08:43:17.044Z,95279.52
2017-12-15T08:45:44.632Z,95283.34
2017-12-15T08:48:12.227Z,95288.00
2017-12-15T08:50:39.907Z,95288.07
2017-12-15T08:53:07.476Z,95298.63
2017-12-15T08:55:35.055Z,95304.60
2017-12-15T08:58:02.808Z,95297.07
2017-12-15T09:00:30.443Z,95302.62
2017-12-15T09:02:58.050Z,95308.13
2017-12-15T09:05:25.631Z,95305.66
2017-12-15T09:07:53.213Z,95306.97
2017-12-15T09:10:21.233Z,95307.83
2017-12-15T09:12:48.840Z,95308.76
2017-12-15T09:15:16.453Z,95308.41
2017-12-15T09:17:44.041Z,95302.61
2017-12-15T09:20:11.611Z,95309.36
2017-12-15T09:22:39.255Z,95299.81
2017-12-15T09:25:06.855Z,95302.33
2017-12-15T09:27:34.483Z,95305.28
2017-12-15T09:30:02.098Z,95307.79
2017-12-15T09:32:29.691Z,95308.66
2017-12-15T09:34:57.274Z,95317.00
2017-12-15T09:37:25.278Z,95317.40
2017-12-15T09:39:52.878Z,95310.72
2017-12-15T09:42:20.479Z,95312.86
2017-12-15T09:44:48.211Z,95312.84
2017-12-15T09:47:15.814Z,95313.70
2017-12-15T09:49:43.448Z,95320.39
2017-12-15T09:52:11.053Z,95317.02
2017-12-15T09:54:38.679Z,95316.54
2017-12-15T09:57:06.315Z,95317.83
2017-12-15T09:59:33.938Z,95320.34
2017-12-15T10:02:01.548Z,95311.97
2017-12-15T10:04:29.197Z,95312.45
2017-12-15T10:06:56.818Z,95311.71
2017-12-15T10:09:24.394Z,95308.83
2017-12-15T10:11:52.003Z,95306.77
2017-12-15T10:14:19.692Z,95318.14
2017-12-15T10:16:47.332Z,95308.91
2017-12-15T10:19:14.954Z,95317.30
2017-12-15T10:21:42.693Z,95313.95
2017-12-15T10:24:10.553Z,95306.04
2017-12-15T10:26:38.172Z,95305.27
2017-12-15T10:29:05.779Z,95304.88
2017-12-15T10:31:33.636Z,95297.77
2017-12-15T10:34:01.204Z,95299.05
2017-12-15T10:36:28.846Z,95295.30
2017-12-15T10:38:56.504Z,95299.95
2017-12-15T10:41:24.118Z,95309.14
2017-12-15T10:43:51.763Z,95310.42
2017-12-15T10:46:19.344Z,95314.63
2017-12-15T10:48:46.934Z,95314.22
2017-12-15T10:51:14.540Z,95314.20
2017-12-15T10:53:42.144Z,95320.09
2017-12-15T10:56:09.761Z,95318.45
2017-12-15T10:58:37.507Z,95320.58
2017-12-15T11:01:05.076Z,95324.76
2017-12-15T11:03:32.964Z,95315.97
2017-12-15T11:06:00.542Z,95313.45
2017-12-15T11:08:28.128Z,95305.94
2017-12-15T11:10:55.699Z,95312.22
2017-12-15T11:13:23.307Z,95311.38
2017-12-15T11:15:50.939Z,95314.74
2017-12-15T11:18:18.517Z,95314.73
2017-12-15T11:20:46.158Z,95316.39
2017-12-15T11:23:13.744Z,95323.12
2017-12-15T11:25:41.369Z,95315.57
2017-12-15T11:28:08.978Z,95317.69
2017-12-15T11:30:36.574Z,95309.38
2017-12-15T11:33:04.150Z,95315.67
2017-12-15T11:35:31.768Z,95308.07
2017-12-15T11:40:26.222Z,95298.83
2017-12-15T11:42:53.836Z,95299.28
2017-12-15T11:45:21.426Z,95292.17
2017-12-15T11:47:49.087Z,95300.97
2017-12-15T11:50:16.644Z,95298.88
2017-12-15T11:52:44.243Z,95311.89
2017-12-15T11:55:11.881Z,95315.22
2017-12-15T11:57:39.474Z,95318.15
2017-12-15T12:00:07.049Z,95312.70
2017-12-15T12:02:34.641Z,95317.76
2017-12-15T12:05:02.247Z,95317.75
2017-12-15T12:07:30.241Z,95323.21
2017-12-15T12:09:57.867Z,95316.92
2017-12-15T12:12:25.485Z,95319.88
2017-12-15T12:14:53.102Z,95303.51
2017-12-15T12:17:20.686Z,95302.23
2017-12-15T12:19:48.298Z,95292.62
2017-12-15T12:22:15.889Z,95291.34
2017-12-15T12:24:43.687Z,95294.70
2017-12-15T12:27:11.317Z,95296.38
2017-12-15T12:29:38.880Z,95301.00
2017-12-15T12:32:06.497Z,95293.45
2017-12-15T12:34:34.100Z,95289.25
2017-12-15T12:37:01.661Z,95293.45
2017-12-15T12:39:29.278Z,95293.86
2017-12-15T12:41:56.860Z,95300.15
2017-12-15T12:44:24.770Z,95290.09
2017-12-15T12:46:52.374Z,95289.66
2017-12-15T12:49:19.945Z,95295.12
2017-12-15T12:51:47.550Z,95289.66
2017-12-15T12:54:15.130Z,95299.30
2017-12-15T12:56:42.702Z,95295.12
2017-12-15T12:59:10.298Z,95302.24
2017-12-15T13:01:37.903Z,95293.84
2017-12-15T13:04:05.488Z,95294.70
2017-12-15T13:06:33.164Z,95285.88
2017-12-15T13:09:00.717Z,95288.81
2017-12-15T13:11:28.294Z,95283.79
2017-12-15T13:13:55.936Z,95278.35
2017-12-15T13:16:23.533Z,95283.81
2017-12-15T13:18:51.136Z,95281.28
2017-12-15T13:21:18.735Z,95285.88
2017-12-15T13:23:46.353Z,95287.98
2017-12-15T13:26:13.961Z,95283.78
2017-12-15T13:28:41.581Z,95282.53
2017-12-15T13:31:09.183Z,95274.99
2017-12-15T13:33:36.778Z,95277.92
2017-12-15T13:36:04.385Z,95278.35
2017-12-15T13:38:32.023Z,95279.59
2017-12-15T13:40:59.679Z,95268.28
2017-12-15T13:43:27.320Z,95278.77
2017-12-15T13:45:54.896Z,95282.53
2017-12-15T13:48:22.483Z,95285.90
2017-12-15T13:50:50.107Z,95293.02
2017-12-15T13:53:17.684Z,95283.39
2017-12-15T13:55:45.313Z,95277.50
2017-12-15T13:58:12.919Z,95282.96
2017-12-15T14:00:40.521Z,95280.88
2017-12-15T14:03:08.457Z,95284.64
2017-12-15T14:05:36.088Z,95292.19
2017-12-15T14:08:03.696Z,95309.38
2017-12-15T14:10:31.285Z,95311.47
2017-12-15T14:12:58.871Z,95306.45
2017-12-15T14:15:26.451Z,95306.02
2017-12-15T14:17:54.071Z,95301.42
2017-12-15T14:20:21.641Z,95305.60
2017-12-15T14:22:49.299Z,95304.34
2017-12-15T14:25:16.878Z,95301.84
2017-12-15T14:27:44.509Z,95302.68
2017-12-15T14:30:12.178Z,95300.58
2017-12-15T14:32:39.765Z,95303.50
2017-12-15T14:35:07.350Z,95305.16
2017-12-15T14:37:34.964Z,95305.16
2017-12-15T14:40:02.612Z,95304.73
2017-12-15T14:42:30.269Z,95299.67
2017-12-15T14:44:57.849Z,95307.21
2017-12-15T14:47:25.411Z,95299.65
2017-12-15T14:49:53.063Z,95311.41
2017-12-15T14:52:20.697Z,95309.73
2017-12-15T14:54:48.304Z,95312.24
2017-12-15T14:57:15.881Z,95322.74
2017-12-15T14:59:43.497Z,95321.48
2017-12-15T15:02:11.087Z,95324.41
2017-12-15T15:04:38.702Z,95324.38
2017-12-15T15:07:06.338Z,95330.66
2017-12-15T15:09:33.980Z,95333.57
2017-12-15T15:12:01.589Z,95329.39
2017-12-15T15:14:29.236Z,95333.97
2017-12-15T15:16:56.820Z,95340.67
2017-12-15T15:19:24.439Z,95336.47
2017-12-15T15:21:52.133Z,95337.72
2017-12-15T15:24:19.739Z,95340.66
2017-12-15T15:26:47.385Z,95331.84
2017-12-15T15:29:15.003Z,95336.04
2017-12-15T15:31:42.659Z,95333.52
2017-12-15T15:34:10.270Z,95333.08
2017-12-15T15:36:37.948Z,95339.34
2017-12-15T15:39:05.579Z,95343.11
2017-12-15T15:41:33.208Z,95343.11
2017-12-15T15:44:00.861Z,95343.09
2017-12-15T15:46:28.480Z,95339.73
2017-12-15T15:48:56.124Z,95341.82
2017-12-15T15:51:23.731Z,95343.06
2017-12-15T15:53:51.400Z,95349.74
2017-12-15T15:56:19.012Z,95348.46
2017-12-15T15:58:46.677Z,95343.85
2017-12-15T16:01:14.280Z,95347.17
2017-12-15T16:03:41.930Z,95346.34
2017-12-15T16:06:09.548Z,95351.77
2017-12-15T16:08:37.164Z,95350.48
2017-12-15T16:11:04.754Z,95348.75
2017-12-15T16:13:32.392Z,95354.63
2017-12-15T16:16:00.080Z,95349.58
2017-12-15T16:18:27.717Z,95359.59
2017-12-15T16:20:55.305Z,95363.78
2017-12-15T16:23:22.935Z,95370.05
2017-12-15T16:25:50.541Z,95367.13
2017-12-15T16:28:18.132Z,95369.19
2017-12-15T16:30:45.742Z,95374.20
2017-12-15T16:33:13.311Z,95382.16
2017-12-15T16:35:40.921Z,95379.64
2017-12-15T16:38:08.505Z,95380.47
2017-12-15T16:40:36.106Z,95380.45
2017-12-15T16:43:03.699Z,95384.20
2017-12-15T16:45:31.276Z,95372.86
2017-12-15T16:47:58.871Z,95363.66
2017-12-15T16:50:26.439Z,95369.05
2017-12-15T16:52:54.057Z,95366.52
2017-12-15T16:55:21.648Z,95359.36
2017-12-15T16:57:49.255Z,95363.92
2017-12-15T17:00:16.867Z,95366.39
2017-12-15T17:02:44.456Z,95365.48
2017-12-15T17:05:12.047Z,95365.89
2017-12-15T17:07:39.686Z,95365.86
2017-12-15T17:10:07.285Z,95371.69
2017-12-15T17:12:34.871Z,95364.12
2017-12-15T17:15:02.492Z,95361.59
2017-12-15T17:17:30.061Z,95372.45
2017-12-15T17:19:57.664Z,95371.21
2017-12-15T17:22:25.261Z,95369.52
2017-12-15T17:24:52.864Z,95374.48
2017-12-15T17:27:20.472Z,95375.35
2017-12-15T17:29:48.098Z,95374.05
2017-12-15T17:32:15.688Z,95368.63
2017-12-15T17:34:43.434Z,95367.78
2017-12-15T17:37:11.045Z,95375.72
2017-12-15T17:39:38.920Z,95381.16
2017-12-15T17:42:06.515Z,95375.35
2017-12-15T17:44:34.108Z,95371.58
2017-12-15T17:47:01.737Z,95377.44
2017-12-15T17:49:29.331Z,95370.77
2017-12-15T17:51:56.968Z,95374.11
2017-12-15T17:54:24.563Z,95371.59
2017-12-15T17:56:52.238Z,95383.32
2017-12-15T17:59:19.836Z,95375.80
2017-12-15T18:01:47.520Z,95382.47
2017-12-15T18:04:15.140Z,95376.17
2017-12-15T18:06:42.750Z,95384.53
2017-12-15T18:09:10.359Z,95385.37
2017-12-15T18:11:38.612Z,95389.55
2017-12-15T18:14:06.267Z,95405.03
2017-12-15T18:16:33.872Z,95406.27
2017-12-15T18:19:01.495Z,95415.05
2017-12-15T18:21:29.137Z,95418.81
2017-12-15T18:23:56.728Z,95420.94
2017-12-15T18:26:25.262Z,95422.59
2017-12-15T18:28:53.303Z,95420.94
2017-12-15T18:31:20.911Z,95421.76
2017-12-15T18:33:48.525Z,95414.22
2017-12-15T18:36:16.171Z,95416.72
2017-12-15T18:38:43.819Z,95430.53
2017-12-15T18:41:11.504Z,95420.89
2017-12-15T18:43:39.089Z,95434.31
2017-12-15T18:46:06.715Z,95432.19
2017-12-15T18:48:34.320Z,95435.09
2017-12-15T18:51:01.958Z,95432.55
2017-12-15T18:53:29.547Z,95434.62
2017-12-15T18:55:57.151Z,95428.31
2017-12-15T18:58:24.759Z,95429.52
2017-12-15T19:00:52.398Z,95435.36
2017-12-15T19:03:19.979Z,95436.98
2017-12-15T19:05:47.588Z,95438.20
2017-12-15T19:08:15.218Z,95437.70
2017-12-15T19:10:42.850Z,95437.22
2017-12-15T19:13:10.479Z,95443.41
2017-12-15T19:15:38.120Z,95445.41
2017-12-15T19:18:05.761Z,95442.41
2017-12-15T19:20:33.369Z,95445.27
2017-12-15T19:23:01.049Z,95446.48
2017-12-15T19:25:28.671Z,95448.09
2017-12-15T19:27:56.363Z,95450.52
2017-12-15T19:30:23.959Z,95450.45
2017-12-15T19:32:52.057Z,95446.20
2017-12-15T19:35:19.717Z,95465.34
2017-12-15T19:37:47.348Z,95454.00
2017-12-15T19:40:15.001Z,95457.25
2017-12-15T19:42:42.717Z,95465.11
2017-12-15T19:45:10.409Z,95466.69
2017-12-15T19:47:38.065Z,95472.47
2017-12-15T19:50:05.746Z,95468.22
2017-12-15T19:52:33.419Z,95471.08
2017-12-15T19:55:01.169Z,95470.62
2017-12-15T19:57:30.688Z,95470.20
2017-12-15T19:59:58.575Z,95473.51
2017-12-15T20:02:26.240Z,95478.89
2017-12-15T20:04:54.037Z,95473.87
2017-12-15T20:07:21.768Z,95472.61
2017-12-15T20:09:49.541Z,95468.76
2017-12-15T20:12:17.478Z,95472.05
2017-12-15T20:14:45.152Z,95472.00
2017-12-15T20:17:12.913Z,95478.56
2017-12-15T20:19:40.650Z,95472.56
2017-12-15T20:22:08.406Z,95480.01
2017-12-15T20:24:36.192Z,95484.64
2017-12-15T20:27:04.223Z,95475.45
2017-12-15T20:29:32.086Z,95485.81
2017-12-15T20:31:59.955Z,95489.90
2017-12-15T20:34:27.905Z,95486.91
2017-12-15T20:36:55.701Z,95486.88
2017-12-15T20:39:23.436Z,95495.20
2017-12-15T20:41:51.197Z,95508.92
2017-12-15T20:44:19.045Z,95506.38
2017-12-15T20:46:46.745Z,95512.18
2017-12-15T20:49:14.448Z,95510.88
2017-12-15T20:51:42.239Z,95505.38
2017-12-15T20:54:10.017Z,95514.03
2017-12-15T20:56:37.782Z,95510.68
2017-12-15T20:59:05.634Z,95516.05
2017-12-15T21:01:33.508Z,95518.10
2017-12-15T21:04:01.474Z,95516.36
2017-12-15T21:06:29.263Z,95518.41
2017-12-15T21:08:57.008Z,95520.03
2017-12-15T21:11:24.894Z,95521.63
2017-12-15T21:13:52.627Z,95521.17
2017-12-15T21:16:20.692Z,95518.17
2017-12-15T21:18:48.492Z,95528.94
2017-12-15T21:21:16.160Z,95534.26
2017-12-15T21:23:43.909Z,95533.67
2017-12-15T21:26:11.638Z,95539.04
2017-12-15T21:28:39.391Z,95533.11
2017-12-15T21:31:07.198Z,95540.16
2017-12-15T21:33:34.926Z,95537.23
2017-12-15T21:36:02.674Z,95537.59
2017-12-15T21:38:31.625Z,95540.03
2017-12-15T21:40:59.413Z,95536.34
2017-12-15T21:43:27.192Z,95542.28
2017-12-15T21:45:54.863Z,95551.88
2017-12-15T21:48:22.582Z,95542.70
2017-12-15T21:50:50.291Z,95551.80
2017-12-15T21:53:17.935Z,95546.59
2017-12-15T21:55:45.620Z,95551.91
2017-12-15T21:58:13.301Z,95553.19
2017-12-15T22:00:40.952Z,95550.74
2017-12-15T22:03:08.631Z,95551.54
2017-12-15T22:05:36.299Z,95548.55
2017-12-15T22:08:04.135Z,95551.36
2017-12-15T22:10:31.767Z,95553.44
2017-12-15T22:12:59.385Z,95556.30
2017-12-15T22:15:27.194Z,95557.19
2017-12-15T22:17:54.849Z,95557.21
2017-12-15T22:20:22.559Z,95556.78
2017-12-15T22:22:50.177Z,95566.32
2017-12-15T22:25:17.842Z,95570.86
2017-12-15T22:27:45.499Z,95572.91
2017-12-15T22:30:13.123Z,95576.62
2017-12-15T22:32:40.751Z,95572.87
2017-12-15T22:35:08.359Z,95574.13
2017-12-15T22:37:36.030Z,95576.77
2017-12-15T22:40:03.618Z,95577.74
2017-12-15T22:42:31.236Z,95575.91
2017-12-15T22:44:58.860Z,95568.18
2017-12-15T22:47:26.480Z,95569.97
2017-12-15T22:49:54.127Z,95565.48
2017-12-15T22:52:22.188Z,95563.48
2017-12-15T22:54:49.829Z,95560.19
2017-12-15T22:57:17.414Z,95560.27
2017-12-15T22:59:45.049Z,95557.80
2017-12-15T23:02:12.692Z,95556.52
2017-12-15T23:04:40.337Z,95556.52
2017-12-15T23:07:07.992Z,95556.15
2017-12-15T23:09:35.718Z,95554.12
2017-12-15T23:12:04.110Z,95553.70
2017-12-15T23:14:31.765Z,95555.38
2017-12-15T23:16:59.397Z,95554.11
2017-12-15T23:19:27.021Z,95557.42
2017-12-15T23:21:54.630Z,95551.52
2017-12-15T23:24:22.249Z,95556.17
2017-12-15T23:26:49.830Z,95552.05
2017-12-15T23:29:17.418Z,95555.01
2017-12-15T23:31:45.014Z,95546.66
2017-12-15T23:34:12.601Z,95547.51
2017-12-15T23:36:40.215Z,95543.35
2017-12-15T23:39:07.801Z,95548.41
2017-12-15T23:41:35.422Z,95548.86
2017-12-15T23:44:03.009Z,95545.48
2017-12-15T23:46:30.652Z,95541.81
2017-12-15T23:48:58.262Z,95546.02
2017-12-15T23:51:25.895Z,95546.09
2017-12-15T23:53:53.480Z,95550.64
2017-12-15T23:56:33.173Z,95548.52
2017-12-15T23:59:00.724Z,95545.48
